Terminal Aerodrome Forecast
Issued by NWS

Home | Current Version | Previous Version | Text Only | Print | Product List | Glossary On
Versions: 1 2 3 4 5 6 7 8 9 10 11 12 13 14 15
725
FTUS46 KSEW 220247 AAC
TAFCLM
TAF AMD
KCLM 220247Z 2203/2224 16003KT 3SM -SN BR FEW016 OVC029
     FM220400 VRB04KT 5SM -SN BR OVC025
     FM220700 24004KT P6SM BKN030 OVC050
     FM220900 24004KT P6SM BKN050 BKN100
     FM222000 09006KT P6SM SCT120=

USA.gov is the U.S. government's official web portal to all federal, state and local government web resources and services.